Terminal Aerodrome Forecast
Issued by NWS

Home | Current Version | Previous Version | Text Only | Print | Product List | Glossary On
Versions: 1 2 3 4 5 6 7 8 9 10 11 12 13 14 15 16
095
FTUS43 KEAX 270841 AAA
TAFMKC
TAF AMD
KMKC 270841Z 2709/2806 27010KT 5SM -RA VCTS OVC050CB
     FM271200 17010KT P6SM OVC018
     FM271800 17012KT P6SM VCTS BKN045CB=

USA.gov is the U.S. government's official web portal to all federal, state and local government web resources and services.